Archival Weather

General Ignacio P Garcia Intl

General Ignacio P Garcia Intl, Mexico (MMHO)

Report from: Wednesday, December 6, 2023 3:40 PM CST
Current time: Friday, February 23, 2024 3:13 PM CST

Current weather – Weather history – Daily summaries
Weather forecast

Temperature31.0°C (87.8°F)
Heat index28.9°C (84.1°F)
Dew point-5.0°C (23.0°F)
Winds 2 kts (1 m/s, 2.3 mph) South (190°)
Visibility10 mi. (16.1 km)
Clouds Scattered clouds 20,000 ft. (6,096 m)
Altimeter30.00 in.Hg (1016 mB)
Relative humidity9 %
Density altitude1,816 ft. (553 m)
Flight conditions Visual Meteorological Conditions
Raw dataMMHO 062140Z 19002KT 10SM SCT200 31/M05 A3000 RMK 8/008 HZY
An error has occurred. This application may no longer respond until reloaded. Reload 🗙